createdAt,value
2023-12-31T00:00:36.566Z,98193.84
2023-12-31T00:03:03.792Z,98183.78
2023-12-31T00:05:30.720Z,98169.81
2023-12-31T00:07:57.459Z,98174.06
2023-12-31T00:10:24.111Z,98171.00
2023-12-31T00:12:50.805Z,98165.66
2023-12-31T00:15:19.107Z,98159.13
2023-12-31T00:17:45.835Z,98157.34
2023-12-31T00:20:12.928Z,98152.13
2023-12-31T00:22:39.653Z,98155.53
2023-12-31T00:25:07.029Z,98146.59
2023-12-31T00:27:33.714Z,98153.28
2023-12-31T00:30:00.358Z,98150.13
2023-12-31T00:32:27.054Z,98141.91
2023-12-31T00:34:53.728Z,98134.63
2023-12-31T00:37:20.381Z,98132.41
2023-12-31T00:39:47.010Z,98130.59
2023-12-31T00:42:13.660Z,98119.72
2023-12-31T00:44:40.282Z,98111.66
2023-12-31T00:47:07.022Z,98100.84
2023-12-31T00:49:33.660Z,98098.69
2023-12-31T00:52:00.340Z,98098.59
2023-12-31T00:54:27.367Z,98090.59
2023-12-31T00:56:54.034Z,98088.31
2023-12-31T00:59:20.661Z,98079.91
2023-12-31T01:01:47.876Z,98074.19
2023-12-31T01:04:14.999Z,98075.44
2023-12-31T01:06:41.645Z,98079.50
2023-12-31T01:09:08.286Z,98082.41
2023-12-31T01:11:35.271Z,98081.81
2023-12-31T01:14:03.004Z,98074.19
2023-12-31T01:16:29.737Z,98078.06
2023-12-31T01:18:56.981Z,98082.91
2023-12-31T01:21:23.750Z,98068.63
2023-12-31T01:23:50.397Z,98071.94
2023-12-31T01:26:17.015Z,98065.03
2023-12-31T01:28:43.702Z,98066.19
2023-12-31T01:31:19.669Z,98060.31
2023-12-31T01:33:47.029Z,98056.84
2023-12-31T01:36:15.879Z,98050.88
2023-12-31T01:38:43.699Z,98053.53
2023-12-31T01:41:10.865Z,98054.88
2023-12-31T01:43:38.077Z,98042.84
2023-12-31T01:46:06.800Z,98040.59
2023-12-31T01:48:35.871Z,98046.22
2023-12-31T01:51:04.020Z,98037.25
2023-12-31T01:53:31.356Z,98041.41
2023-12-31T01:55:59.473Z,98035.31
2023-12-31T01:58:26.403Z,98031.22
2023-12-31T02:00:53.399Z,98026.72
2023-12-31T02:03:20.242Z,98029.31
2023-12-31T02:05:47.735Z,98022.66
2023-12-31T02:08:14.602Z,98003.38
2023-12-31T02:10:41.374Z,97990.25
2023-12-31T02:13:08.109Z,97988.00
2023-12-31T02:15:35.970Z,97984.03
2023-12-31T02:18:04.090Z,97988.34
2023-12-31T02:20:31.867Z,97985.03
2023-12-31T02:22:59.477Z,97979.31
2023-12-31T02:25:29.358Z,97979.28
2023-12-31T02:27:57.029Z,97976.75
2023-12-31T02:30:25.868Z,97977.63
2023-12-31T02:32:52.621Z,97977.69
2023-12-31T02:35:19.477Z,97959.44
2023-12-31T02:37:46.152Z,97955.88
2023-12-31T02:40:12.949Z,97948.94
2023-12-31T02:42:39.699Z,97937.19
2023-12-31T02:45:07.061Z,97933.28
2023-12-31T02:47:33.753Z,97927.91
2023-12-31T02:50:00.401Z,97924.81
2023-12-31T02:52:27.157Z,97911.59
2023-12-31T02:54:53.816Z,97911.66
2023-12-31T02:57:20.753Z,97892.91
2023-12-31T02:59:47.347Z,97889.25
2023-12-31T03:02:14.049Z,97878.41
2023-12-31T03:04:44.117Z,97870.19
2023-12-31T03:07:10.903Z,97866.91
2023-12-31T03:09:37.575Z,97863.16
2023-12-31T03:12:04.769Z,97860.03
2023-12-31T03:14:31.487Z,97865.06
2023-12-31T03:16:59.021Z,97843.50
2023-12-31T03:19:25.765Z,97839.22
2023-12-31T03:21:52.501Z,97844.16
2023-12-31T03:24:21.919Z,97837.81
2023-12-31T03:26:48.564Z,97839.66
2023-12-31T03:29:15.262Z,97845.06
2023-12-31T03:31:44.408Z,97838.09
2023-12-31T03:34:13.041Z,97825.50
2023-12-31T03:36:39.698Z,97844.16
2023-12-31T03:39:06.717Z,97828.69
2023-12-31T03:41:33.394Z,97840.06
2023-12-31T03:44:01.106Z,97825.16
2023-12-31T03:46:29.412Z,97823.03
2023-12-31T03:48:56.284Z,97839.13
2023-12-31T03:51:23.542Z,97821.41
2023-12-31T03:53:50.160Z,97824.50
2023-12-31T03:56:16.871Z,97825.41
2023-12-31T03:58:43.606Z,97829.94
2023-12-31T04:01:10.321Z,97826.19
2023-12-31T04:03:40.129Z,97814.13
2023-12-31T04:06:08.182Z,97811.47
2023-12-31T04:08:34.962Z,97811.09
2023-12-31T04:11:01.577Z,97806.56
2023-12-31T04:13:29.952Z,97802.38
2023-12-31T04:15:56.814Z,97797.06
2023-12-31T04:18:23.497Z,97786.56
2023-12-31T04:20:50.390Z,97774.34
2023-12-31T04:23:17.005Z,97773.00
2023-12-31T04:25:44.101Z,97771.28
2023-12-31T04:28:11.047Z,97768.41
2023-12-31T04:30:41.547Z,97758.47
2023-12-31T04:33:08.438Z,97759.50
2023-12-31T04:35:35.107Z,97760.31
2023-12-31T04:38:02.080Z,97749.66
2023-12-31T04:40:28.758Z,97742.81
2023-12-31T04:42:55.444Z,97747.84
2023-12-31T04:45:22.131Z,97741.59
2023-12-31T04:47:48.857Z,97740.84
2023-12-31T04:50:15.719Z,97738.25
2023-12-31T04:52:42.492Z,97730.00
2023-12-31T04:55:09.416Z,97721.56
2023-12-31T04:57:40.368Z,97721.00
2023-12-31T05:00:07.859Z,97727.78
2023-12-31T05:02:34.851Z,97716.41
2023-12-31T05:05:03.745Z,97717.06
2023-12-31T05:07:30.481Z,97716.16
2023-12-31T05:09:57.270Z,97712.63
2023-12-31T05:12:24.345Z,97700.53
2023-12-31T05:14:51.090Z,97702.38
2023-12-31T05:17:17.768Z,97704.25
2023-12-31T05:19:46.276Z,97705.72
2023-12-31T05:22:13.036Z,97711.25
2023-12-31T05:24:40.061Z,97722.03
2023-12-31T05:27:06.737Z,97708.34
2023-12-31T05:29:33.366Z,97700.44
2023-12-31T05:32:00.105Z,97692.16
2023-12-31T05:34:27.443Z,97684.31
2023-12-31T05:36:54.068Z,97688.22
2023-12-31T05:39:20.739Z,97679.53
2023-12-31T05:41:47.368Z,97676.84
2023-12-31T05:44:14.151Z,97668.66
2023-12-31T05:46:41.034Z,97667.03
2023-12-31T05:49:07.999Z,97674.63
2023-12-31T05:51:35.094Z,97669.78
2023-12-31T05:54:01.944Z,97667.97
2023-12-31T05:56:28.606Z,97660.06
2023-12-31T05:58:55.977Z,97645.81
2023-12-31T06:01:22.908Z,97648.13
2023-12-31T06:03:49.657Z,97638.13
2023-12-31T06:06:17.110Z,97640.41
2023-12-31T06:08:45.262Z,97640.56
2023-12-31T06:11:11.949Z,97643.09
2023-12-31T06:13:38.871Z,97640.19
2023-12-31T06:16:05.774Z,97631.72
2023-12-31T06:18:32.502Z,97631.16
2023-12-31T06:20:59.145Z,97635.81
2023-12-31T06:23:26.121Z,97627.44
2023-12-31T06:25:52.864Z,97623.56
2023-12-31T06:28:19.597Z,97621.81
2023-12-31T06:30:46.309Z,97613.38
2023-12-31T06:33:13.158Z,97607.47
2023-12-31T06:35:40.557Z,97599.78
2023-12-31T06:38:07.199Z,97605.34
2023-12-31T06:40:33.900Z,97609.09
2023-12-31T06:43:00.717Z,97619.59
2023-12-31T06:45:27.663Z,97632.41
2023-12-31T06:47:54.343Z,97633.25
2023-12-31T06:50:21.037Z,97621.06
2023-12-31T06:52:47.764Z,97619.75
2023-12-31T06:55:15.684Z,97616.59
2023-12-31T06:57:42.402Z,97614.84
2023-12-31T07:00:09.701Z,97596.75
2023-12-31T07:02:37.003Z,97600.88
2023-12-31T07:05:08.797Z,97598.59
2023-12-31T07:07:35.942Z,97600.84
2023-12-31T07:10:02.982Z,97597.50
2023-12-31T07:12:29.635Z,97605.69
2023-12-31T07:14:56.864Z,97594.31
2023-12-31T07:17:30.011Z,97581.84
2023-12-31T07:19:57.989Z,97584.13
2023-12-31T07:22:25.728Z,97577.22
2023-12-31T07:24:52.384Z,97576.09
2023-12-31T07:27:19.001Z,97576.78
2023-12-31T07:29:45.731Z,97588.03
2023-12-31T07:32:12.433Z,97588.84
2023-12-31T07:34:39.446Z,97584.88
2023-12-31T07:37:06.095Z,97582.25
2023-12-31T07:39:33.220Z,97586.16
2023-12-31T07:41:59.883Z,97592.22
2023-12-31T07:44:26.536Z,97583.16
2023-12-31T07:46:53.242Z,97584.25
2023-12-31T07:49:19.921Z,97579.03
2023-12-31T07:51:46.609Z,97578.66
2023-12-31T07:54:13.250Z,97586.66
2023-12-31T07:56:42.238Z,97590.88
2023-12-31T07:59:09.670Z,97580.31
2023-12-31T08:01:36.345Z,97576.94
2023-12-31T08:04:03.169Z,97576.22
2023-12-31T08:06:29.927Z,97565.06
2023-12-31T08:08:56.693Z,97551.00
2023-12-31T08:11:23.388Z,97553.81
2023-12-31T08:13:50.461Z,97561.38
2023-12-31T08:16:17.605Z,97556.94
2023-12-31T08:18:44.445Z,97556.63
2023-12-31T08:21:11.991Z,97559.59
2023-12-31T08:23:38.811Z,97547.16
2023-12-31T08:26:05.478Z,97564.63
2023-12-31T08:28:32.375Z,97557.94
2023-12-31T08:30:59.081Z,97540.56
2023-12-31T08:33:25.794Z,97533.28
2023-12-31T08:35:52.527Z,97535.25
2023-12-31T08:38:19.496Z,97545.63
2023-12-31T08:40:46.253Z,97539.50
2023-12-31T08:43:13.040Z,97540.53
2023-12-31T08:45:40.658Z,97541.00
2023-12-31T08:48:11.519Z,97550.66
2023-12-31T08:50:38.212Z,97550.09
2023-12-31T08:53:05.326Z,97547.25
2023-12-31T08:55:32.311Z,97533.47
2023-12-31T08:57:59.549Z,97522.72
2023-12-31T09:00:26.285Z,97520.66
2023-12-31T09:02:52.928Z,97512.47
2023-12-31T09:05:19.713Z,97507.22
2023-12-31T09:07:46.758Z,97497.22
2023-12-31T09:10:13.533Z,97509.69
2023-12-31T09:12:40.258Z,97512.03
2023-12-31T09:15:08.051Z,97504.63
2023-12-31T09:17:37.504Z,97502.38
2023-12-31T09:20:09.718Z,97514.38
2023-12-31T09:22:37.068Z,97500.69
2023-12-31T09:25:06.984Z,97507.09
2023-12-31T09:27:33.895Z,97496.84
2023-12-31T09:30:00.528Z,97490.72
2023-12-31T09:32:27.659Z,97486.31
2023-12-31T09:34:54.401Z,97494.91
2023-12-31T09:37:21.360Z,97489.22
2023-12-31T09:39:49.226Z,97507.72
2023-12-31T09:42:40.460Z,97509.34
2023-12-31T09:45:09.213Z,97506.63
2023-12-31T09:47:36.900Z,97512.94
2023-12-31T09:50:04.997Z,97521.94
2023-12-31T09:52:32.865Z,97519.56
2023-12-31T09:55:01.791Z,97514.50
2023-12-31T09:57:32.134Z,97499.50
2023-12-31T10:00:02.181Z,97486.53
2023-12-31T10:02:29.190Z,97482.16
2023-12-31T10:04:56.029Z,97497.84
2023-12-31T10:07:24.153Z,97492.66
2023-12-31T10:09:51.458Z,97477.94
2023-12-31T10:12:18.395Z,97464.72
2023-12-31T10:14:45.110Z,97450.47
2023-12-31T10:17:12.503Z,97455.78
2023-12-31T10:19:41.708Z,97456.25
2023-12-31T10:22:12.146Z,97454.53
2023-12-31T10:24:38.849Z,97445.97
2023-12-31T10:27:09.949Z,97441.19
2023-12-31T10:29:38.107Z,97436.78
2023-12-31T10:32:07.348Z,97437.63
2023-12-31T10:34:34.805Z,97430.13
2023-12-31T10:37:07.708Z,97420.59
2023-12-31T10:39:39.960Z,97409.88
2023-12-31T10:42:07.803Z,97409.88
2023-12-31T10:44:37.276Z,97412.78
2023-12-31T10:47:10.697Z,97409.66
2023-12-31T10:49:44.949Z,97402.34
2023-12-31T10:52:15.763Z,97396.63
2023-12-31T10:54:52.795Z,97396.41
2023-12-31T10:57:22.450Z,97390.53
2023-12-31T10:59:50.158Z,97396.47
2023-12-31T11:02:21.889Z,97389.69
2023-12-31T11:04:50.548Z,97394.97
2023-12-31T11:07:20.896Z,97401.84
2023-12-31T11:09:49.458Z,97395.53
2023-12-31T11:12:17.331Z,97383.03
2023-12-31T11:15:09.940Z,97385.31
2023-12-31T11:18:14.249Z,97387.53
2023-12-31T11:21:13.057Z,97398.94
2023-12-31T11:24:15.713Z,97395.06
2023-12-31T11:26:42.513Z,97392.63
2023-12-31T11:29:12.841Z,97375.97
2023-12-31T11:31:42.759Z,97366.88
2023-12-31T11:34:10.830Z,97370.97
2023-12-31T11:36:38.072Z,97370.16
2023-12-31T11:39:15.679Z,97376.78
2023-12-31T11:41:51.189Z,97349.03
2023-12-31T11:44:45.150Z,97344.22
2023-12-31T11:47:17.163Z,97333.97
2023-12-31T11:49:51.426Z,97332.09
2023-12-31T11:52:21.227Z,97326.94
2023-12-31T11:54:48.183Z,97340.78
2023-12-31T11:57:18.223Z,97329.91
2023-12-31T11:59:45.877Z,97321.50
2023-12-31T12:02:12.633Z,97312.19
2023-12-31T12:04:39.416Z,97314.09
2023-12-31T12:07:06.299Z,97315.59
2023-12-31T12:09:34.262Z,97309.13
2023-12-31T12:12:04.575Z,97314.81
2023-12-31T12:14:32.035Z,97302.28
2023-12-31T12:17:03.577Z,97297.25
2023-12-31T12:19:36.297Z,97304.59
2023-12-31T12:22:04.287Z,97298.63
2023-12-31T12:24:31.173Z,97303.75
2023-12-31T12:27:04.102Z,97321.25
2023-12-31T12:29:32.627Z,97339.53
2023-12-31T12:32:03.890Z,97330.59
2023-12-31T12:34:31.314Z,97332.56
2023-12-31T12:37:00.100Z,97340.88
2023-12-31T12:39:26.740Z,97343.09
2023-12-31T12:41:54.477Z,97332.72
2023-12-31T12:44:23.797Z,97355.88
2023-12-31T12:46:52.887Z,97354.63
2023-12-31T12:49:21.230Z,97354.78
2023-12-31T12:51:48.437Z,97343.75
2023-12-31T12:54:16.015Z,97344.97
2023-12-31T12:56:44.883Z,97342.53
2023-12-31T12:59:11.816Z,97347.78
2023-12-31T13:01:38.561Z,97348.91
2023-12-31T13:04:11.783Z,97346.28
2023-12-31T13:06:39.687Z,97348.66
2023-12-31T13:09:07.647Z,97351.13
2023-12-31T13:11:36.268Z,97359.22
2023-12-31T13:14:03.058Z,97366.06
2023-12-31T13:16:40.191Z,97362.53
2023-12-31T13:19:14.743Z,97375.22
2023-12-31T13:21:41.550Z,97379.94
2023-12-31T13:24:08.295Z,97384.41
2023-12-31T13:26:34.910Z,97397.91
2023-12-31T13:29:04.264Z,97397.66
2023-12-31T13:31:32.071Z,97384.66
2023-12-31T13:33:59.147Z,97374.06
2023-12-31T13:36:25.932Z,97376.19
2023-12-31T13:38:52.725Z,97370.88
2023-12-31T13:41:23.605Z,97369.91
2023-12-31T13:43:51.517Z,97365.81
2023-12-31T13:46:18.226Z,97363.97
2023-12-31T13:48:44.984Z,97372.31
2023-12-31T13:51:11.724Z,97379.66
2023-12-31T13:53:38.948Z,97386.22
2023-12-31T13:56:07.067Z,97390.03
2023-12-31T13:58:33.746Z,97388.81
2023-12-31T14:01:00.984Z,97388.28
2023-12-31T14:03:27.751Z,97378.56
2023-12-31T14:05:54.446Z,97398.06
2023-12-31T14:08:21.063Z,97395.44
2023-12-31T14:10:47.903Z,97393.44
2023-12-31T14:13:14.659Z,97399.31
2023-12-31T14:15:41.491Z,97407.00
2023-12-31T14:18:08.358Z,97392.66
2023-12-31T14:20:35.211Z,97415.69
2023-12-31T14:23:02.200Z,97396.94
2023-12-31T14:25:29.085Z,97405.41
2023-12-31T14:27:55.735Z,97384.28
2023-12-31T14:30:22.607Z,97381.25
2023-12-31T14:32:49.646Z,97372.63
2023-12-31T14:35:16.632Z,97385.41
2023-12-31T14:37:43.407Z,97392.31
2023-12-31T14:40:10.539Z,97400.44
2023-12-31T14:42:37.620Z,97407.06
2023-12-31T14:45:07.226Z,97412.69
2023-12-31T14:47:34.203Z,97396.84
2023-12-31T14:50:01.081Z,97409.72
2023-12-31T14:52:27.817Z,97395.31
2023-12-31T14:54:54.557Z,97396.94
2023-12-31T14:57:21.604Z,97409.44
2023-12-31T14:59:48.220Z,97414.31
2023-12-31T15:02:24.253Z,97397.38
2023-12-31T15:05:00.868Z,97408.16
2023-12-31T15:07:34.007Z,97419.41
2023-12-31T15:10:00.955Z,97419.16
2023-12-31T15:12:28.696Z,97414.81
2023-12-31T15:14:55.404Z,97423.03
2023-12-31T15:17:22.108Z,97419.78
2023-12-31T15:19:48.747Z,97428.09
2023-12-31T15:22:15.401Z,97439.03
2023-12-31T15:24:42.098Z,97427.03
2023-12-31T15:27:08.765Z,97424.38
2023-12-31T15:29:35.623Z,97428.53
2023-12-31T15:32:02.402Z,97422.75
2023-12-31T15:34:29.427Z,97413.03
2023-12-31T15:36:56.432Z,97426.41
2023-12-31T15:39:24.295Z,97423.81
2023-12-31T15:41:51.488Z,97423.69
2023-12-31T15:44:18.351Z,97433.59
2023-12-31T15:46:45.221Z,97428.56
2023-12-31T15:49:12.628Z,97446.63
2023-12-31T15:51:39.589Z,97458.41
2023-12-31T15:54:06.294Z,97454.81
2023-12-31T15:56:32.957Z,97460.75
2023-12-31T15:58:59.669Z,97457.78
2023-12-31T16:01:26.435Z,97453.75
2023-12-31T16:03:53.474Z,97466.13
2023-12-31T16:06:20.224Z,97478.59
2023-12-31T16:08:46.968Z,97490.19
2023-12-31T16:11:14.467Z,97489.47
2023-12-31T16:13:41.206Z,97490.84
2023-12-31T16:16:09.030Z,97489.19
2023-12-31T16:18:36.412Z,97493.94
2023-12-31T16:21:03.221Z,97509.81
2023-12-31T16:23:29.858Z,97525.44
2023-12-31T16:25:56.541Z,97531.19
2023-12-31T16:28:25.028Z,97525.00
2023-12-31T16:30:51.870Z,97512.66
2023-12-31T16:33:18.641Z,97513.41
2023-12-31T16:35:45.524Z,97506.16
2023-12-31T16:38:12.338Z,97515.94
2023-12-31T16:40:39.436Z,97515.94
2023-12-31T16:43:09.285Z,97512.41
2023-12-31T16:45:36.929Z,97522.44
2023-12-31T16:48:06.182Z,97519.78
2023-12-31T16:50:35.143Z,97506.75
2023-12-31T16:53:04.982Z,97520.69
2023-12-31T16:55:31.861Z,97521.75
2023-12-31T16:57:58.560Z,97524.69
2023-12-31T17:00:25.871Z,97526.75
2023-12-31T17:02:52.661Z,97533.47
2023-12-31T17:05:25.171Z,97547.84
2023-12-31T17:07:51.926Z,97537.63
2023-12-31T17:10:18.589Z,97546.69
2023-12-31T17:12:46.450Z,97560.75
2023-12-31T17:15:14.482Z,97563.28
2023-12-31T17:17:41.553Z,97541.31
2023-12-31T17:20:09.056Z,97540.41
2023-12-31T17:22:36.652Z,97539.81
2023-12-31T17:25:05.608Z,97543.81
2023-12-31T17:27:33.121Z,97536.97
2023-12-31T17:30:01.127Z,97530.16
2023-12-31T17:32:28.292Z,97529.59
2023-12-31T17:34:55.019Z,97524.56
2023-12-31T17:37:21.698Z,97533.47
2023-12-31T17:39:48.453Z,97542.38
2023-12-31T17:42:15.139Z,97530.78
2023-12-31T17:44:41.752Z,97521.72
2023-12-31T17:47:08.595Z,97535.69
2023-12-31T17:49:35.270Z,97518.31
2023-12-31T17:52:02.009Z,97523.34
2023-12-31T17:54:29.216Z,97523.22
2023-12-31T17:56:55.908Z,97526.78
2023-12-31T17:59:25.825Z,97537.94
2023-12-31T18:01:52.457Z,97541.78
2023-12-31T18:04:19.129Z,97540.59
2023-12-31T18:06:45.746Z,97536.44
2023-12-31T18:09:12.401Z,97538.66
2023-12-31T18:11:39.025Z,97543.25
2023-12-31T18:14:05.721Z,97538.22
2023-12-31T18:16:32.470Z,97542.38
2023-12-31T18:19:00.541Z,97543.56
2023-12-31T18:21:28.178Z,97530.50
2023-12-31T18:23:56.223Z,97540.28
2023-12-31T18:26:23.461Z,97548.59
2023-12-31T18:28:50.097Z,97561.09
2023-12-31T18:31:17.033Z,97573.84
2023-12-31T18:33:43.760Z,97587.66
2023-12-31T18:36:11.722Z,97579.78
2023-12-31T18:38:38.377Z,97592.38
2023-12-31T18:41:05.203Z,97586.31
2023-12-31T18:43:31.893Z,97591.94
2023-12-31T18:46:04.384Z,97593.88
2023-12-31T18:48:31.558Z,97600.09
2023-12-31T18:50:59.716Z,97607.69
2023-12-31T18:53:26.334Z,97603.66
2023-12-31T18:55:53.076Z,97605.31
2023-12-31T18:58:19.809Z,97610.63
2023-12-31T19:00:46.616Z,97615.38
2023-12-31T19:03:13.618Z,97622.97
2023-12-31T19:05:40.371Z,97620.69
2023-12-31T19:08:08.963Z,97627.50
2023-12-31T19:10:35.894Z,97631.97
2023-12-31T19:13:02.612Z,97623.22
2023-12-31T19:15:29.226Z,97619.50
2023-12-31T19:17:55.900Z,97622.03
2023-12-31T19:20:22.564Z,97627.81
2023-12-31T19:22:49.304Z,97624.66
2023-12-31T19:25:16.138Z,97625.03
2023-12-31T19:27:42.869Z,97629.72
2023-12-31T19:30:10.301Z,97628.41
2023-12-31T19:32:44.308Z,97626.06
2023-12-31T19:35:12.828Z,97638.97
2023-12-31T19:37:40.469Z,97631.00
2023-12-31T19:40:08.178Z,97636.50
2023-12-31T19:42:34.855Z,97627.75
2023-12-31T19:45:01.760Z,97633.44
2023-12-31T19:47:28.523Z,97633.56
2023-12-31T19:49:58.985Z,97620.63
2023-12-31T19:52:29.223Z,97614.94
2023-12-31T19:54:56.042Z,97613.16
2023-12-31T19:57:22.805Z,97605.31
2023-12-31T19:59:51.030Z,97610.16
2023-12-31T20:02:18.771Z,97603.06
2023-12-31T20:04:45.592Z,97614.00
2023-12-31T20:07:12.374Z,97614.28
2023-12-31T20:09:39.462Z,97617.28
2023-12-31T20:12:07.497Z,97616.25
2023-12-31T20:14:34.205Z,97618.69
2023-12-31T20:17:00.993Z,97603.84
2023-12-31T20:19:27.628Z,97613.91
2023-12-31T20:21:54.460Z,97613.28
2023-12-31T20:24:21.064Z,97608.13
2023-12-31T20:26:47.769Z,97606.25
2023-12-31T20:29:16.901Z,97605.53
2023-12-31T20:31:45.542Z,97603.66
2023-12-31T20:34:13.536Z,97602.88
2023-12-31T20:36:40.173Z,97602.16
2023-12-31T20:39:06.907Z,97586.91
2023-12-31T20:41:33.514Z,97590.81
2023-12-31T20:44:00.323Z,97591.13
2023-12-31T20:46:27.095Z,97592.31
2023-12-31T20:48:54.107Z,97597.81
2023-12-31T20:51:23.393Z,97587.28
2023-12-31T20:53:50.040Z,97597.44
2023-12-31T20:56:18.535Z,97598.16
2023-12-31T20:58:45.183Z,97590.66
2023-12-31T21:01:11.863Z,97596.84
2023-12-31T21:03:38.728Z,97596.50
2023-12-31T21:06:05.761Z,97596.28
2023-12-31T21:08:32.505Z,97600.81
2023-12-31T21:11:01.167Z,97597.66
2023-12-31T21:13:27.919Z,97597.31
2023-12-31T21:15:55.115Z,97602.13
2023-12-31T21:18:21.886Z,97600.91
2023-12-31T21:20:53.081Z,97597.34
2023-12-31T21:23:20.571Z,97597.41
2023-12-31T21:25:47.236Z,97598.09
2023-12-31T21:28:13.937Z,97588.66
2023-12-31T21:30:42.506Z,97577.97
2023-12-31T21:33:10.907Z,97589.94
2023-12-31T21:35:37.868Z,97576.34
2023-12-31T21:38:05.097Z,97576.84
2023-12-31T21:40:31.988Z,97569.69
2023-12-31T21:42:59.367Z,97593.53
2023-12-31T21:45:27.345Z,97585.09
2023-12-31T21:47:54.071Z,97584.59
2023-12-31T21:50:20.864Z,97576.94
2023-12-31T21:52:47.564Z,97575.91
2023-12-31T21:55:22.887Z,97578.66
2023-12-31T21:57:55.236Z,97583.31
2023-12-31T22:00:21.931Z,97582.97
2023-12-31T22:02:51.388Z,97591.38
2023-12-31T22:05:18.294Z,97585.94
2023-12-31T22:07:45.241Z,97598.84
2023-12-31T22:10:12.004Z,97584.69
2023-12-31T22:12:41.647Z,97584.34
2023-12-31T22:15:08.923Z,97595.09
2023-12-31T22:17:35.636Z,97601.25
2023-12-31T22:20:04.384Z,97593.78
2023-12-31T22:22:31.762Z,97599.13
2023-12-31T22:24:58.770Z,97600.63
2023-12-31T22:27:27.713Z,97596.66
2023-12-31T22:29:55.143Z,97598.56
2023-12-31T22:32:21.789Z,97595.19
2023-12-31T22:34:48.506Z,97593.97
2023-12-31T22:37:15.227Z,97604.31
2023-12-31T22:39:44.418Z,97592.88
2023-12-31T22:42:11.067Z,97603.22
2023-12-31T22:44:37.757Z,97602.06
2023-12-31T22:47:04.599Z,97606.50
2023-12-31T22:49:31.342Z,97607.69
2023-12-31T22:51:58.000Z,97600.59
2023-12-31T22:54:24.639Z,97599.09
2023-12-31T22:56:51.842Z,97604.88
2023-12-31T22:59:19.126Z,97594.19
2023-12-31T23:01:46.103Z,97597.75
2023-12-31T23:04:12.789Z,97599.50
2023-12-31T23:06:39.388Z,97604.06
2023-12-31T23:09:06.009Z,97598.09
2023-12-31T23:11:32.625Z,97582.78
2023-12-31T23:13:59.411Z,97590.31
2023-12-31T23:16:26.081Z,97581.97
2023-12-31T23:18:53.746Z,97585.75
2023-12-31T23:21:20.529Z,97582.91
2023-12-31T23:23:47.304Z,97582.09
2023-12-31T23:26:14.001Z,97597.81
2023-12-31T23:28:40.677Z,97591.41
2023-12-31T23:31:08.496Z,97594.03
2023-12-31T23:33:35.194Z,97596.16
2023-12-31T23:36:01.808Z,97586.94
2023-12-31T23:38:28.419Z,97594.22
2023-12-31T23:40:55.110Z,97601.78
2023-12-31T23:43:21.764Z,97604.88
2023-12-31T23:45:48.390Z,97595.03
2023-12-31T23:48:15.091Z,97601.78
2023-12-31T23:50:41.751Z,97586.88
2023-12-31T23:53:08.396Z,97592.97
2023-12-31T23:55:36.445Z,97597.09
2023-12-31T23:58:08.380Z,97605.38
